createdAt,value
2023-05-06T00:01:20.400Z,14.16
2023-05-06T00:03:47.775Z,14.15
2023-05-06T00:06:14.491Z,14.13
2023-05-06T00:08:40.959Z,14.11
2023-05-06T00:11:07.415Z,14.11
2023-05-06T00:13:33.868Z,14.06
2023-05-06T00:16:00.612Z,14.05
2023-05-06T00:18:27.141Z,14.04
2023-05-06T00:20:53.650Z,14.02
2023-05-06T00:23:20.074Z,14.01
2023-05-06T00:25:46.581Z,14.01
2023-05-06T00:28:13.143Z,14.00
2023-05-06T00:30:39.581Z,14.00
2023-05-06T00:33:06.157Z,13.98
2023-05-06T00:35:32.620Z,13.97
2023-05-06T00:38:11.771Z,13.93
2023-05-06T00:40:38.727Z,13.96
2023-05-06T00:43:05.729Z,13.94
2023-05-06T00:45:32.752Z,13.94
2023-05-06T00:47:59.437Z,13.92
2023-05-06T00:50:28.177Z,13.91
2023-05-06T00:52:55.318Z,13.90
2023-05-06T00:55:22.036Z,13.89
2023-05-06T00:57:51.891Z,13.89
2023-05-06T01:00:19.439Z,13.89
2023-05-06T01:02:48.257Z,13.89
2023-05-06T01:05:22.185Z,13.89
2023-05-06T01:08:13.149Z,13.91
2023-05-06T01:10:49.859Z,13.90
2023-05-06T01:13:38.800Z,13.91
2023-05-06T01:16:08.712Z,13.92
2023-05-06T01:18:38.336Z,13.93
2023-05-06T01:21:05.716Z,13.92
2023-05-06T01:23:56.595Z,13.88
2023-05-06T01:26:23.923Z,13.92
2023-05-06T01:28:50.898Z,13.90
2023-05-06T01:31:35.372Z,13.88
2023-05-06T01:34:31.275Z,13.83
2023-05-06T01:36:57.707Z,13.86
2023-05-06T01:39:26.140Z,13.82
2023-05-06T01:41:57.271Z,13.80
2023-05-06T01:44:24.776Z,13.79
2023-05-06T01:46:53.667Z,13.77
2023-05-06T01:49:22.158Z,13.75
2023-05-06T01:51:51.410Z,13.75
2023-05-06T01:54:18.567Z,13.75
2023-05-06T01:56:45.078Z,13.75
2023-05-06T01:59:11.510Z,13.78
2023-05-06T02:01:37.945Z,13.78
2023-05-06T02:04:04.625Z,13.80
2023-05-06T02:06:32.603Z,13.81
2023-05-06T02:08:59.057Z,13.81
2023-05-06T02:11:25.801Z,13.84
2023-05-06T02:13:52.466Z,13.85
2023-05-06T02:16:18.987Z,13.86
2023-05-06T02:18:45.796Z,13.87
2023-05-06T02:21:12.309Z,13.88
2023-05-06T02:23:38.804Z,13.87
2023-05-06T02:26:05.329Z,13.88
2023-05-06T02:28:31.727Z,13.86
2023-05-06T02:30:58.793Z,13.84
2023-05-06T02:33:25.348Z,13.83
2023-05-06T02:35:51.933Z,13.81
2023-05-06T02:38:19.519Z,13.80
2023-05-06T02:40:45.989Z,13.80
2023-05-06T02:43:12.451Z,13.80
2023-05-06T02:45:39.266Z,13.80
2023-05-06T02:48:06.176Z,13.80
2023-05-06T02:50:32.927Z,13.79
2023-05-06T02:52:59.401Z,13.78
2023-05-06T02:55:25.857Z,13.74
2023-05-06T02:57:52.223Z,13.72
2023-05-06T03:00:18.934Z,13.71
2023-05-06T03:02:45.916Z,13.70
2023-05-06T03:05:12.560Z,13.70
2023-05-06T03:07:39.236Z,13.68
2023-05-06T03:10:06.245Z,13.68
2023-05-06T03:12:32.943Z,13.67
2023-05-06T03:14:59.378Z,13.67
2023-05-06T03:17:26.029Z,13.66
2023-05-06T03:19:52.522Z,13.65
2023-05-06T03:22:18.955Z,13.64
2023-05-06T03:24:45.544Z,13.62
2023-05-06T03:27:12.217Z,13.60
2023-05-06T03:29:38.664Z,13.58
2023-05-06T03:32:05.654Z,13.54
2023-05-06T03:34:32.250Z,13.51
2023-05-06T03:36:58.787Z,13.48
2023-05-06T03:39:25.230Z,13.47
2023-05-06T03:41:51.701Z,13.45
2023-05-06T03:44:18.090Z,13.44
2023-05-06T03:46:44.555Z,13.43
2023-05-06T03:49:11.128Z,13.41
2023-05-06T03:51:37.640Z,13.39
2023-05-06T03:54:04.794Z,13.38
2023-05-06T03:56:31.314Z,13.36
2023-05-06T03:58:57.771Z,13.33
2023-05-06T04:01:24.139Z,13.29
2023-05-06T04:03:51.992Z,13.27
2023-05-06T04:06:18.561Z,13.25
2023-05-06T04:08:45.012Z,13.24
2023-05-06T04:11:11.749Z,13.23
2023-05-06T04:13:38.181Z,13.22
2023-05-06T04:16:05.287Z,13.21
2023-05-06T04:18:32.733Z,13.22
2023-05-06T04:21:00.195Z,13.23
2023-05-06T04:23:26.647Z,13.24
2023-05-06T04:25:53.117Z,13.24
2023-05-06T04:28:19.605Z,13.25
2023-05-06T04:30:46.594Z,13.25
2023-05-06T04:33:13.327Z,13.26
2023-05-06T04:35:40.416Z,13.26
2023-05-06T04:38:06.958Z,13.27
2023-05-06T04:40:36.437Z,13.27
2023-05-06T04:43:02.953Z,13.29
2023-05-06T04:45:29.813Z,13.32
2023-05-06T04:47:56.422Z,13.33
2023-05-06T04:50:22.848Z,13.32
2023-05-06T04:52:49.253Z,13.30
2023-05-06T04:55:15.640Z,13.28
2023-05-06T04:57:42.007Z,13.26
2023-05-06T05:00:10.358Z,13.26
2023-05-06T05:02:37.178Z,13.23
2023-05-06T05:05:03.888Z,13.21
2023-05-06T05:07:30.409Z,13.22
2023-05-06T05:09:57.059Z,13.22
2023-05-06T05:12:23.455Z,13.23
2023-05-06T05:14:49.908Z,13.24
2023-05-06T05:17:16.492Z,13.27
2023-05-06T05:19:43.026Z,13.31
2023-05-06T05:22:09.459Z,13.33
2023-05-06T05:24:35.874Z,13.38
2023-05-06T05:27:02.537Z,13.43
2023-05-06T05:29:28.898Z,13.48
2023-05-06T05:31:55.518Z,13.55
2023-05-06T05:34:21.924Z,13.61
2023-05-06T05:36:48.339Z,13.69
2023-05-06T05:39:14.764Z,13.78
2023-05-06T05:41:41.387Z,13.86
2023-05-06T05:44:07.864Z,13.92
2023-05-06T05:46:34.508Z,13.99
2023-05-06T05:49:01.048Z,14.06
2023-05-06T05:51:27.402Z,14.11
2023-05-06T05:53:53.836Z,14.18
2023-05-06T05:56:20.592Z,14.24
2023-05-06T05:58:47.405Z,14.28
2023-05-06T06:03:48.028Z,14.41
2023-05-06T06:06:14.701Z,14.45
2023-05-06T06:08:41.495Z,14.52
2023-05-06T06:11:07.910Z,14.56
2023-05-06T06:13:34.406Z,14.62
2023-05-06T06:16:01.025Z,14.67
2023-05-06T06:18:27.601Z,14.70
2023-05-06T06:20:54.109Z,14.73
2023-05-06T06:23:21.076Z,14.76
2023-05-06T06:25:47.849Z,14.79
2023-05-06T06:28:14.355Z,14.83
2023-05-06T06:30:41.518Z,14.84
2023-05-06T06:33:08.028Z,14.87
2023-05-06T06:35:34.830Z,14.91
2023-05-06T06:38:01.599Z,14.95
2023-05-06T06:40:28.099Z,15.00
2023-05-06T06:42:54.604Z,15.04
2023-05-06T06:45:21.312Z,15.08
2023-05-06T06:47:47.870Z,15.13
2023-05-06T06:50:14.422Z,15.16
2023-05-06T06:52:40.919Z,15.22
2023-05-06T06:55:08.221Z,15.27
2023-05-06T06:57:34.817Z,15.32
2023-05-06T07:00:01.329Z,15.37
2023-05-06T07:02:27.857Z,15.43
2023-05-06T07:04:54.272Z,15.48
2023-05-06T07:07:20.844Z,15.53
2023-05-06T07:09:47.414Z,15.59
2023-05-06T07:12:13.960Z,15.62
2023-05-06T07:14:41.457Z,15.67
2023-05-06T07:17:07.943Z,15.71
2023-05-06T07:19:34.658Z,15.75
2023-05-06T07:22:02.494Z,15.81
2023-05-06T07:24:28.995Z,15.84
2023-05-06T07:26:55.471Z,15.85
2023-05-06T07:29:22.064Z,15.88
2023-05-06T07:31:48.436Z,15.88
2023-05-06T07:34:14.851Z,15.87
2023-05-06T07:36:43.330Z,15.86
2023-05-06T07:39:10.910Z,15.84
2023-05-06T07:41:37.323Z,15.83
2023-05-06T07:44:04.125Z,15.81
2023-05-06T07:46:30.680Z,15.81
2023-05-06T07:48:57.341Z,15.81
2023-05-06T07:51:23.831Z,15.83
2023-05-06T07:53:50.465Z,15.85
2023-05-06T07:56:18.100Z,15.86
2023-05-06T07:58:44.503Z,15.88
2023-05-06T08:01:11.047Z,15.89
2023-05-06T08:03:37.691Z,15.90
2023-05-06T08:06:04.586Z,15.93
2023-05-06T08:08:31.254Z,15.96
2023-05-06T08:10:58.792Z,16.01
2023-05-06T08:13:25.900Z,16.05
2023-05-06T08:15:52.903Z,16.13
2023-05-06T08:18:22.805Z,16.22
2023-05-06T08:20:50.157Z,16.31
2023-05-06T08:23:16.862Z,16.39
2023-05-06T08:25:43.391Z,16.50
2023-05-06T08:28:09.930Z,16.58
2023-05-06T08:30:36.765Z,16.67
2023-05-06T08:33:03.559Z,16.74
2023-05-06T08:35:30.131Z,16.82
2023-05-06T08:37:56.662Z,16.90
2023-05-06T08:40:24.201Z,16.99
2023-05-06T08:42:50.852Z,17.06
2023-05-06T08:45:17.859Z,17.16
2023-05-06T08:47:44.531Z,17.25
2023-05-06T08:50:11.739Z,17.34
2023-05-06T08:52:39.319Z,17.40
2023-05-06T08:55:07.309Z,17.52
2023-05-06T08:57:34.638Z,17.60
2023-05-06T09:00:01.836Z,17.70
2023-05-06T09:02:28.658Z,17.81
2023-05-06T09:04:56.724Z,17.91
2023-05-06T09:07:24.512Z,18.01
2023-05-06T09:09:51.682Z,18.11
2023-05-06T09:12:18.610Z,18.21
2023-05-06T09:14:46.576Z,18.31
2023-05-06T09:17:24.137Z,18.38
2023-05-06T09:19:56.880Z,18.51
2023-05-06T09:22:24.745Z,18.59
2023-05-06T09:24:57.833Z,18.67
2023-05-06T09:27:29.455Z,18.73
2023-05-06T09:30:01.679Z,18.82
2023-05-06T09:32:29.060Z,18.93
2023-05-06T09:34:56.296Z,19.02
2023-05-06T09:37:23.394Z,19.11
2023-05-06T09:39:53.364Z,19.18
2023-05-06T09:42:21.699Z,19.24
2023-05-06T09:44:48.299Z,19.29
2023-05-06T09:47:15.225Z,19.32
2023-05-06T09:49:42.108Z,19.36
2023-05-06T09:52:08.614Z,19.41
2023-05-06T09:54:35.772Z,19.49
2023-05-06T09:59:31.771Z,19.61
2023-05-06T10:01:59.346Z,19.66
2023-05-06T10:04:27.371Z,19.73
2023-05-06T10:06:56.661Z,19.83
2023-05-06T10:09:27.009Z,19.92
2023-05-06T10:14:20.980Z,20.16
2023-05-06T10:16:48.935Z,20.26
2023-05-06T10:19:22.901Z,20.37
2023-05-06T10:21:55.156Z,20.51
2023-05-06T10:24:26.202Z,20.65
2023-05-06T10:26:56.481Z,20.80
2023-05-06T10:29:26.525Z,20.96
2023-05-06T10:31:57.208Z,21.12
2023-05-06T10:34:25.225Z,21.28
2023-05-06T10:36:57.633Z,21.43
2023-05-06T10:39:25.400Z,21.58
2023-05-06T10:41:52.024Z,21.74
2023-05-06T10:44:18.445Z,21.92
2023-05-06T10:47:01.993Z,22.11
2023-05-06T10:49:29.020Z,22.43
2023-05-06T10:52:15.124Z,22.73
2023-05-06T10:54:50.282Z,23.22
2023-05-06T10:57:17.365Z,23.73
2023-05-06T10:59:47.687Z,24.27
2023-05-06T11:02:16.712Z,24.84
2023-05-06T11:04:59.518Z,25.38
2023-05-06T11:07:26.436Z,25.99
2023-05-06T11:09:58.376Z,26.51
2023-05-06T11:12:50.617Z,27.00
2023-05-06T11:15:39.976Z,27.52
2023-05-06T11:18:24.830Z,27.94
2023-05-06T11:21:12.640Z,28.30
2023-05-06T11:23:42.482Z,28.60
2023-05-06T11:26:13.434Z,28.87
2023-05-06T11:28:43.299Z,29.16
2023-05-06T11:31:10.409Z,29.47
2023-05-06T11:33:37.679Z,29.80
2023-05-06T11:36:05.095Z,30.12
2023-05-06T11:38:49.361Z,30.42
2023-05-06T11:41:16.965Z,30.79
2023-05-06T11:43:50.389Z,31.03
2023-05-06T11:46:19.043Z,31.33
2023-05-06T11:48:46.069Z,31.55
2023-05-06T11:51:12.707Z,31.75
2023-05-06T11:53:39.394Z,31.92
2023-05-06T11:56:07.170Z,32.13
2023-05-06T11:58:33.883Z,32.32
2023-05-06T12:01:02.078Z,32.49
2023-05-06T12:03:31.681Z,32.66
2023-05-06T12:05:59.099Z,32.81
2023-05-06T12:08:29.829Z,32.89
2023-05-06T12:11:00.741Z,32.99
2023-05-06T12:13:28.362Z,33.10
2023-05-06T12:15:55.568Z,33.16
2023-05-06T12:18:23.471Z,33.18
2023-05-06T12:20:49.961Z,33.22
2023-05-06T12:23:16.853Z,33.33
2023-05-06T12:25:49.040Z,33.47
2023-05-06T12:28:20.808Z,33.64
2023-05-06T12:30:47.319Z,33.89
2023-05-06T12:33:13.826Z,34.05
2023-05-06T12:35:41.312Z,34.14
2023-05-06T12:38:15.481Z,34.16
2023-05-06T12:40:43.458Z,34.29
2023-05-06T12:43:11.519Z,34.44
2023-05-06T12:45:39.543Z,34.60
2023-05-06T12:48:06.724Z,34.72
2023-05-06T12:50:37.001Z,34.86
2023-05-06T12:53:04.888Z,35.00
2023-05-06T12:55:35.755Z,35.15
2023-05-06T12:58:02.712Z,35.35
2023-05-06T13:00:29.960Z,35.53
2023-05-06T13:02:56.440Z,35.68
2023-05-06T13:05:23.129Z,35.79
2023-05-06T13:07:51.114Z,35.84
2023-05-06T13:10:17.509Z,35.89
2023-05-06T13:12:43.984Z,35.91
2023-05-06T13:15:10.713Z,35.91
2023-05-06T13:17:37.162Z,35.91
2023-05-06T13:20:05.404Z,35.94
2023-05-06T13:22:40.384Z,35.98
2023-05-06T13:25:13.727Z,36.08
2023-05-06T13:27:40.178Z,36.15
2023-05-06T13:30:08.707Z,36.21
2023-05-06T13:32:35.757Z,36.28
2023-05-06T13:35:02.330Z,36.30
2023-05-06T13:37:28.749Z,36.27
2023-05-06T13:39:55.308Z,36.20
2023-05-06T13:42:21.830Z,35.97
2023-05-06T13:44:48.410Z,35.65
2023-05-06T13:47:14.920Z,35.28
2023-05-06T13:49:41.363Z,34.96
2023-05-06T13:52:08.440Z,34.61
2023-05-06T13:54:35.134Z,34.19
2023-05-06T13:57:01.550Z,33.70
2023-05-06T13:59:28.051Z,33.23
2023-05-06T14:01:55.958Z,32.87
2023-05-06T14:04:22.542Z,32.61
2023-05-06T14:06:49.130Z,32.36
2023-05-06T14:09:15.531Z,32.16
2023-05-06T14:11:42.128Z,32.00
2023-05-06T14:14:08.596Z,31.88
2023-05-06T14:16:35.220Z,31.79
2023-05-06T14:19:01.787Z,31.69
2023-05-06T14:21:28.239Z,31.54
2023-05-06T14:23:55.330Z,31.37
2023-05-06T14:26:22.452Z,31.16
2023-05-06T14:28:48.966Z,30.95
2023-05-06T14:31:15.424Z,30.77
2023-05-06T14:33:41.936Z,30.67
2023-05-06T14:36:09.278Z,30.65
2023-05-06T14:38:35.914Z,30.75
2023-05-06T14:41:02.296Z,30.95
2023-05-06T14:43:28.797Z,31.15
2023-05-06T14:45:55.412Z,31.33
2023-05-06T14:48:21.945Z,31.48
2023-05-06T14:50:48.515Z,31.57
2023-05-06T14:53:15.032Z,31.70
2023-05-06T14:55:42.120Z,31.83
2023-05-06T14:58:08.556Z,31.97
2023-05-06T15:00:35.007Z,32.12
2023-05-06T15:03:01.769Z,32.26
2023-05-06T15:05:28.419Z,32.31
2023-05-06T15:07:54.872Z,32.25
2023-05-06T15:10:21.958Z,32.08
2023-05-06T15:12:48.447Z,31.87
2023-05-06T15:15:14.954Z,31.68
2023-05-06T15:17:41.846Z,31.58
2023-05-06T15:20:08.970Z,31.54
2023-05-06T15:22:37.213Z,31.58
2023-05-06T15:25:06.208Z,31.67
2023-05-06T15:27:32.753Z,31.79
2023-05-06T15:30:04.116Z,31.87
2023-05-06T15:32:31.497Z,31.94
2023-05-06T15:34:58.022Z,31.99
2023-05-06T15:37:24.575Z,32.03
2023-05-06T15:39:52.470Z,32.05
2023-05-06T15:42:18.982Z,32.05
2023-05-06T15:44:47.485Z,31.95
2023-05-06T15:47:13.994Z,31.77
2023-05-06T15:52:10.728Z,31.10
2023-05-06T15:54:37.733Z,30.68
2023-05-06T15:57:05.156Z,30.26
2023-05-06T15:59:33.376Z,29.83
2023-05-06T16:04:30.006Z,29.13
2023-05-06T16:06:57.608Z,28.92
2023-05-06T16:09:24.501Z,28.79
2023-05-06T16:11:51.060Z,28.72
2023-05-06T16:14:17.540Z,28.68
2023-05-06T16:16:44.103Z,28.65
2023-05-06T16:19:10.823Z,28.58
2023-05-06T16:21:37.492Z,28.51
2023-05-06T16:24:04.097Z,28.41
2023-05-06T16:26:30.730Z,28.29
2023-05-06T16:28:59.486Z,28.17
2023-05-06T16:31:26.586Z,27.97
2023-05-06T16:33:53.043Z,27.78
2023-05-06T16:36:19.544Z,27.57
2023-05-06T16:38:48.542Z,27.37
2023-05-06T16:41:15.035Z,27.16
2023-05-06T16:43:41.557Z,26.95
2023-05-06T16:46:08.188Z,26.72
2023-05-06T16:48:34.849Z,26.49
2023-05-06T16:51:01.344Z,26.28
2023-05-06T16:53:28.174Z,26.06
2023-05-06T16:55:54.942Z,25.85
2023-05-06T16:58:21.624Z,25.63
2023-05-06T17:00:48.163Z,25.45
2023-05-06T17:03:14.928Z,25.28
2023-05-06T17:05:41.555Z,25.11
2023-05-06T17:08:08.288Z,24.96
2023-05-06T17:10:35.043Z,24.81
2023-05-06T17:13:01.626Z,24.65
2023-05-06T17:15:28.145Z,24.53
2023-05-06T17:17:54.737Z,24.38
2023-05-06T17:20:21.281Z,24.23
2023-05-06T17:22:47.956Z,24.10
2023-05-06T17:25:15.276Z,23.99
2023-05-06T17:27:41.858Z,23.87
2023-05-06T17:30:11.997Z,23.74
2023-05-06T17:32:39.211Z,23.63
2023-05-06T17:35:06.897Z,23.51
2023-05-06T17:37:34.102Z,23.39
2023-05-06T17:40:00.604Z,23.27
2023-05-06T17:42:29.953Z,23.16
2023-05-06T17:44:56.527Z,23.05
2023-05-06T17:47:23.148Z,22.94
2023-05-06T17:49:53.993Z,22.81
2023-05-06T17:52:20.698Z,22.72
2023-05-06T17:54:57.121Z,22.60
2023-05-06T17:57:35.467Z,22.51
2023-05-06T18:00:02.020Z,22.43
2023-05-06T18:02:28.577Z,22.34
2023-05-06T18:04:55.171Z,22.26
2023-05-06T18:07:21.673Z,22.18
2023-05-06T18:09:51.913Z,22.11
2023-05-06T18:12:19.397Z,22.02
2023-05-06T18:14:46.095Z,21.94
2023-05-06T18:17:12.530Z,21.86
2023-05-06T18:19:38.991Z,21.78
2023-05-06T18:22:05.569Z,21.70
2023-05-06T18:24:32.122Z,21.62
2023-05-06T18:26:58.772Z,21.53
2023-05-06T18:29:25.454Z,21.43
2023-05-06T18:31:51.926Z,21.35
2023-05-06T18:34:18.413Z,21.27
2023-05-06T18:36:44.869Z,21.18
2023-05-06T18:39:11.921Z,21.09
2023-05-06T18:41:38.451Z,21.02
2023-05-06T18:44:05.179Z,20.94
2023-05-06T18:46:31.809Z,20.87
2023-05-06T18:48:59.102Z,20.78
2023-05-06T18:51:26.362Z,20.72
2023-05-06T18:53:53.330Z,20.66
2023-05-06T18:56:19.787Z,20.59
2023-05-06T18:58:46.257Z,20.52
2023-05-06T19:01:12.760Z,20.46
2023-05-06T19:03:39.525Z,20.38
2023-05-06T19:06:10.551Z,20.33
2023-05-06T19:08:37.294Z,20.26
2023-05-06T19:11:03.876Z,20.21
2023-05-06T19:13:31.215Z,20.16
2023-05-06T19:15:57.930Z,20.12
2023-05-06T19:18:24.467Z,20.07
2023-05-06T19:20:51.193Z,20.03
2023-05-06T19:23:18.325Z,19.99
2023-05-06T19:25:44.817Z,19.94
2023-05-06T19:28:11.917Z,19.91
2023-05-06T19:30:38.506Z,19.88
2023-05-06T19:33:05.171Z,19.83
2023-05-06T19:35:31.723Z,19.80
2023-05-06T19:37:58.653Z,19.75
2023-05-06T19:40:25.218Z,19.73
2023-05-06T19:42:52.453Z,19.69
2023-05-06T19:45:19.378Z,19.67
2023-05-06T19:47:46.347Z,19.64
2023-05-06T19:50:13.252Z,19.62
2023-05-06T19:52:40.423Z,19.58
2023-05-06T19:55:07.491Z,19.56
2023-05-06T19:57:34.093Z,19.53
2023-05-06T20:00:06.021Z,19.51
2023-05-06T20:02:32.998Z,19.49
2023-05-06T20:05:00.299Z,19.47
2023-05-06T20:07:27.332Z,19.46
2023-05-06T20:09:55.891Z,19.45
2023-05-06T20:12:24.261Z,19.44
2023-05-06T20:14:50.816Z,19.46
2023-05-06T20:17:17.274Z,19.49
2023-05-06T20:19:45.060Z,19.51
2023-05-06T20:22:11.789Z,19.55
2023-05-06T20:24:38.314Z,19.59
2023-05-06T20:27:04.857Z,19.64
2023-05-06T20:29:31.452Z,19.67
2023-05-06T20:31:58.237Z,19.71
2023-05-06T20:34:24.829Z,19.74
2023-05-06T20:36:54.124Z,19.76
2023-05-06T20:39:21.996Z,19.78
2023-05-06T20:41:48.678Z,19.78
2023-05-06T20:44:15.216Z,19.77
2023-05-06T20:46:41.643Z,19.78
2023-05-06T20:49:08.178Z,19.77
2023-05-06T20:51:34.671Z,19.78
2023-05-06T20:54:01.329Z,19.77
2023-05-06T20:56:28.243Z,19.75
2023-05-06T20:58:55.813Z,19.73
2023-05-06T21:01:23.859Z,19.71
2023-05-06T21:03:50.784Z,19.66
2023-05-06T21:06:18.247Z,19.63
2023-05-06T21:08:46.224Z,19.58
2023-05-06T21:11:13.112Z,19.53
2023-05-06T21:13:40.218Z,19.47
2023-05-06T21:16:06.704Z,19.39
2023-05-06T21:18:33.270Z,19.30
2023-05-06T21:20:59.911Z,19.23
2023-05-06T21:23:26.518Z,19.13
2023-05-06T21:25:53.080Z,19.06
2023-05-06T21:28:19.691Z,18.99
2023-05-06T21:30:46.159Z,18.94
2023-05-06T21:33:12.691Z,18.86
2023-05-06T21:35:39.303Z,18.80
2023-05-06T21:38:06.990Z,18.73
2023-05-06T21:40:33.452Z,18.69
2023-05-06T21:42:59.907Z,18.64
2023-05-06T21:45:26.736Z,18.59
2023-05-06T21:47:53.392Z,18.55
2023-05-06T21:50:19.901Z,18.51
2023-05-06T21:52:46.356Z,18.46
2023-05-06T21:55:13.291Z,18.41
2023-05-06T21:57:39.852Z,18.36
2023-05-06T22:00:12.304Z,18.32
2023-05-06T22:02:39.848Z,18.28
2023-05-06T22:05:08.255Z,18.22
2023-05-06T22:07:35.915Z,18.16
2023-05-06T22:10:02.931Z,18.12
2023-05-06T22:12:29.666Z,18.07
2023-05-06T22:14:56.161Z,18.05
2023-05-06T22:17:22.591Z,18.02
2023-05-06T22:19:49.149Z,17.99
2023-05-06T22:22:16.421Z,17.95
2023-05-06T22:24:42.920Z,17.91
2023-05-06T22:27:09.375Z,17.88
2023-05-06T22:29:36.041Z,17.84
2023-05-06T22:32:03.368Z,17.79
2023-05-06T22:34:30.450Z,17.77
2023-05-06T22:36:58.356Z,17.74
2023-05-06T22:39:26.822Z,17.72
2023-05-06T22:41:53.385Z,17.70
2023-05-06T22:44:19.966Z,17.67
2023-05-06T22:46:46.454Z,17.65
2023-05-06T22:49:13.824Z,17.63
2023-05-06T22:51:40.449Z,17.61
2023-05-06T22:54:06.910Z,17.58
2023-05-06T22:56:33.630Z,17.56
2023-05-06T22:59:00.032Z,17.54
2023-05-06T23:01:31.599Z,17.51
2023-05-06T23:03:59.338Z,17.48
2023-05-06T23:06:27.876Z,17.44
2023-05-06T23:08:54.361Z,17.39
2023-05-06T23:11:20.919Z,17.35
2023-05-06T23:13:47.401Z,17.30
2023-05-06T23:16:14.586Z,17.26
2023-05-06T23:18:41.641Z,17.22
2023-05-06T23:21:09.253Z,17.18
2023-05-06T23:23:35.720Z,17.15
2023-05-06T23:26:02.444Z,17.11
2023-05-06T23:28:29.232Z,17.08
2023-05-06T23:30:55.736Z,17.04
2023-05-06T23:33:22.466Z,17.01
2023-05-06T23:35:49.029Z,16.98
2023-05-06T23:38:15.540Z,16.95
2023-05-06T23:40:41.976Z,16.90
2023-05-06T23:43:09.801Z,16.87
2023-05-06T23:45:36.374Z,16.85
2023-05-06T23:48:03.239Z,16.81
2023-05-06T23:50:29.711Z,16.79
2023-05-06T23:52:56.184Z,16.77
2023-05-06T23:55:22.729Z,16.76
2023-05-06T23:57:49.260Z,16.73
